Yuho Maru No.3 — JD2491 — position and weather

sailwx.info

Track history (hours):
 
Tides and Currents Weather Stations Pressure Air Temp Water Temp Dewpoint Dewpoint Depression Visibility Wind Speed Wind Dir Waves Ship Positions

Yuho Maru No.3

Last reported at 2016-Feb-14 18:33 UTC. Time now 2016-Feb-14 19:01 UTC.
Position N 35°41' E 139°59'.

Length 65 m; draft 4.2 m.

Type: Tanker. MMSI: 431000336.

Date/timePositionNaut miles runAvg speedWind from/ knotsBaromVisibWave heightAir tempDewpointWater temp
2016-Feb-14 18:33N 35°41' E 139°59'0 0.0
2016-Feb-14 17:32N 35°41' E 139°59'0 0.0
2016-Feb-14 16:33N 35°41' E 139°59'0 0.0
2016-Feb-14 15:33N 35°41' E 139°59'0 0.0
2016-Feb-14 14:33N 35°41' E 139°59'0 0.0
2016-Feb-14 13:33N 35°41' E 139°59'0 0.0
2016-Feb-14 12:32N 35°41' E 139°59'0 0.0
2016-Feb-14 11:33N 35°41' E 139°59'0 0.0
2016-Feb-14 10:33N 35°41' E 139°59'0 0.0
2016-Feb-14 09:33N 35°41' E 139°59'0 0.0
2016-Feb-14 08:33N 35°41' E 139°59'0 0.0
2016-Feb-14 07:33N 35°41' E 139°59'0 0.0
2016-Feb-14 06:33N 35°41' E 139°59'0 0.0
2016-Feb-14 05:33N 35°41' E 139°59'0 0.1
2016-Feb-14 04:33N 35°41' E 139°59'4 3.8
2016-Feb-14 03:33N 35°37' E 139°57'3 3.0
2016-Feb-14 02:32N 35°35' E 139°55'8 8.4
2016-Feb-14 01:33N 35°31' E 139°46'0 0.0
2016-Feb-14 00:30N 35°31' E 139°46'0 0.3
2016-Feb-13 23:33N 35°31' E 139°46'7 6.5
2016-Feb-13 22:33N 35°33' E 139°54'1 0.8
2016-Feb-13 21:31N 35°34' E 139°54'0 0.0
2016-Feb-13 20:32N 35°34' E 139°54'0 0.0
2016-Feb-13 19:34N 35°34' E 139°54'0 0.0
2016-Feb-13 18:31N 35°34' E 139°54'0 0.0
2016-Feb-13 17:33N 35°34' E 139°54'0 0.0
2016-Feb-13 16:33N 35°34' E 139°54'0 0.0
2016-Feb-13 15:30N 35°34' E 139°54'0 0.0
2016-Feb-13 14:33N 35°34' E 139°54'0 0.0
2016-Feb-13 13:31N 35°34' E 139°54'0 0.0
2016-Feb-13 12:33N 35°34' E 139°54'0 0.0
2016-Feb-13 11:20N 35°34' E 139°54'0 0.0
2016-Feb-13 10:33N 35°34' E 139°54'0 0.0
2016-Feb-13 09:33N 35°34' E 139°54'1 0.6
2016-Feb-13 08:33N 35°34' E 139°53'9 9.0
2016-Feb-13 07:32N 35°27' E 139°45'0 0.0
2016-Feb-13 06:32N 35°27' E 139°45'0 0.0
2016-Feb-13 05:32N 35°27' E 139°45'1 0.9
2016-Feb-13 04:32N 35°28' E 139°44'0 0.0
2016-Feb-13 03:32N 35°28' E 139°44'0 0.1
2016-Feb-13 02:32N 35°28' E 139°44'0 0.0
2016-Feb-13 01:32N 35°28' E 139°44'0 0.0
2016-Feb-13 00:32N 35°28' E 139°44'1 1.0
2016-Feb-12 23:33N 35°28' E 139°45'0 0.3
2016-Feb-12 22:33N 35°28' E 139°46'5 4.8
2016-Feb-12 21:33N 35°27' E 139°40'0 0.0
2016-Feb-12 20:33N 35°27' E 139°40'0 0.0
2016-Feb-12 19:33N 35°27' E 139°40'0 0.0
2016-Feb-12 18:33N 35°27' E 139°40'0 0.0
2016-Feb-12 17:33N 35°27' E 139°40'0 0.0
2016-Feb-12 16:33N 35°27' E 139°40'0 0.0
2016-Feb-12 15:33N 35°27' E 139°40'0 0.0
2016-Feb-12 14:33N 35°27' E 139°40'0 0.0
2016-Feb-12 13:33N 35°27' E 139°40'0 0.0
2016-Feb-12 12:33N 35°27' E 139°40'0 0.0
2016-Feb-12 11:33N 35°27' E 139°40'0 0.0
2016-Feb-12 10:33N 35°27' E 139°40'0 0.0
2016-Feb-12 09:33N 35°27' E 139°40'0 0.0
2016-Feb-12 08:33N 35°27' E 139°40'0 0.0
2016-Feb-12 07:33N 35°27' E 139°40'0 0.0
2016-Feb-12 06:33N 35°27' E 139°40'0 0.0
2016-Feb-12 05:33N 35°27' E 139°40'0 0.0
2016-Feb-12 04:33N 35°27' E 139°40'0 0.0
2016-Feb-12 03:33N 35°27' E 139°40'0 0.0
2016-Feb-12 02:33N 35°27' E 139°40'0 0.0
2016-Feb-12 01:33N 35°27' E 139°40'0 0.0
2016-Feb-12 00:33N 35°27' E 139°40'0 0.0
2016-Feb-11 23:33N 35°27' E 139°40'0 0.0
2016-Feb-11 22:33N 35°27' E 139°40'0 0.0
2016-Feb-11 21:33N 35°27' E 139°40'0 0.0
2016-Feb-11 20:33N 35°27' E 139°40'0 0.0
2016-Feb-11 19:33N 35°27' E 139°40'0 0.0
2016-Feb-11 18:33N 35°27' E 139°40'0 0.0
2016-Feb-11 17:33N 35°27' E 139°40'0 0.0
2016-Feb-11 16:33N 35°27' E 139°40'0 0.0
2016-Feb-11 15:33N 35°27' E 139°40'0 0.0
2016-Feb-11 14:33N 35°27' E 139°40'0 0.0
2016-Feb-11 13:33N 35°27' E 139°40'0 0.0
2016-Feb-11 12:33N 35°27' E 139°40'0 0.0
2016-Feb-11 11:33N 35°27' E 139°40'0 0.0
2016-Feb-11 10:33N 35°27' E 139°40'0 0.0
2016-Feb-11 09:33N 35°27' E 139°40'0 0.0
2016-Feb-11 08:33N 35°27' E 139°40'0 0.0
2016-Feb-11 07:33N 35°27' E 139°40'0 0.0
2016-Feb-11 06:33N 35°27' E 139°40'0 0.0
2016-Feb-11 05:33N 35°27' E 139°40'0 0.0
2016-Feb-11 04:33N 35°27' E 139°40'0 0.0
2016-Feb-11 03:33N 35°27' E 139°40'0 0.0
2016-Feb-11 02:33N 35°27' E 139°40'0 0.0
2016-Feb-11 01:33N 35°27' E 139°40'2 2.5
2016-Feb-11 00:33N 35°27' E 139°43'1312.5
2016-Feb-10 23:33N 35°32' E 139°56'9 9.0
2016-Feb-10 22:33N 35°36' E 140°06'0 0.0
2016-Feb-10 21:33N 35°36' E 140°06'0 0.0
2016-Feb-10 20:33N 35°36' E 140°06'0 0.0
2016-Feb-10 19:33N 35°36' E 140°06'0 0.0
2016-Feb-10 18:33N 35°36' E 140°06'0 0.0
2016-Feb-10 17:33N 35°36' E 140°06'0 0.0
2016-Feb-10 16:33N 35°36' E 140°06'0 0.0
2016-Feb-10 15:33N 35°36' E 140°06'0 0.0
2016-Feb-10 14:33N 35°36' E 140°06'0 0.0
2016-Feb-10 13:33N 35°36' E 140°06'0 0.0
2016-Feb-10 12:33N 35°36' E 140°06'0 0.0
2016-Feb-10 11:33N 35°36' E 140°06'0 0.0
2016-Feb-10 10:33N 35°36' E 140°06'0 0.0
2016-Feb-10 09:33N 35°36' E 140°06'0 0.0
2016-Feb-10 08:33N 35°36' E 140°06'0 0.0
2016-Feb-10 07:33N 35°36' E 140°06'0 0.0
2016-Feb-10 06:33N 35°36' E 140°06'0 0.0
2016-Feb-10 05:33N 35°36' E 140°06'0 0.0
2016-Feb-10 04:33N 35°36' E 140°06'0 0.0
2016-Feb-10 03:33N 35°36' E 140°06'6 5.9
2016-Feb-10 02:33N 35°33' E 140°00'0 0.0
2016-Feb-10 01:33N 35°33' E 140°00'0 0.0
2016-Feb-10 00:27N 35°33' E 140°00'0 0.0
2016-Feb-09 23:33N 35°33' E 140°00'1 1.0
2016-Feb-09 22:33N 35°34' E 140°01'7 7.1
2016-Feb-09 21:33N 35°41' E 139°59'0 0.0
2016-Feb-09 20:33N 35°41' E 139°59'0 0.0
2016-Feb-09 19:33N 35°41' E 139°59'0 0.0
2016-Feb-09 18:33N 35°41' E 139°59'0 0.0
2016-Feb-09 17:33N 35°41' E 139°59'0 0.0
2016-Feb-09 16:33N 35°41' E 139°59'0 0.0
2016-Feb-09 15:33N 35°41' E 139°59'0 0.0
2016-Feb-09 14:33N 35°41' E 139°59'0 0.0
2016-Feb-09 13:33N 35°41' E 139°59'0 0.0
2016-Feb-09 12:33N 35°41' E 139°59'0 0.0
2016-Feb-09 11:33N 35°41' E 139°59'0 0.0
2016-Feb-09 10:33N 35°41' E 139°59'0 0.0
2016-Feb-09 09:33N 35°41' E 139°59'0 0.0
2016-Feb-09 08:33N 35°41' E 139°59'5 5.4
2016-Feb-09 07:33N 35°36' E 139°56'4 4.4
2016-Feb-09 06:33N 35°40' E 139°56'0 0.0
2016-Feb-09 05:33N 35°40' E 139°56'1 0.9
2016-Feb-09 04:33N 35°40' E 139°57'10 9.8
2016-Feb-09 03:33N 35°32' E 140°04'0 0.0
2016-Feb-09 02:33N 35°32' E 140°04'0 0.0
2016-Feb-09 01:33N 35°32' E 140°04'0 0.0
2016-Feb-09 00:33N 35°32' E 140°04'0 0.0
2016-Feb-08 23:34N 35°32' E 140°04'4 4.2
2016-Feb-08 22:33N 35°30' E 139°59'4 4.2
2016-Feb-08 21:33N 35°29' E 139°54'0 0.0
2016-Feb-08 20:33N 35°29' E 139°54'0 0.1
2016-Feb-08 19:33N 35°29' E 139°54'0 0.5
2016-Feb-08 18:33N 35°29' E 139°53'1212.3
2016-Feb-08 17:33N 35°19' E 139°44'1312.2
2016-Feb-08 16:31N 35°06' E 139°45'243 5.8
2016-Feb-06 22:19N 34°03' E 135°00'1012.3
2016-Feb-06 21:32N 34°12' E 134°59'1511.0
2016-Feb-06 20:10N 34°27' E 135°01'711.3
2016-Feb-06 19:34N 34°34' E 135°03'  
Track history (hours):
 
Tides and Currents Weather Stations Pressure Air Temp Water Temp Dewpoint Dewpoint Depression Visibility Wind Speed Wind Dir Waves Ship Positions

Yuho Maru No.3

Last reported at 2016-Feb-14 18:33 UTC. Time now 2016-Feb-14 19:01 UTC.
Position N 35°41' E 139°59'.

Length 65 m; draft 4.2 m.

Type: Tanker. MMSI: 431000336.

Date/timePositionNaut miles runAvg speedWind from/ knotsBaromVisibWave heightAir tempDewpointWater temp
2016-Feb-14 18:33N 35°41' E 139°59'0 0.0
2016-Feb-14 17:32N 35°41' E 139°59'0 0.0
2016-Feb-14 16:33N 35°41' E 139°59'0 0.0
2016-Feb-14 15:33N 35°41' E 139°59'0 0.0
2016-Feb-14 14:33N 35°41' E 139°59'0 0.0
2016-Feb-14 13:33N 35°41' E 139°59'0 0.0
2016-Feb-14 12:32N 35°41' E 139°59'0 0.0
2016-Feb-14 11:33N 35°41' E 139°59'0 0.0
2016-Feb-14 10:33N 35°41' E 139°59'0 0.0
2016-Feb-14 09:33N 35°41' E 139°59'0 0.0
2016-Feb-14 08:33N 35°41' E 139°59'0 0.0
2016-Feb-14 07:33N 35°41' E 139°59'0 0.0
2016-Feb-14 06:33N 35°41' E 139°59'0 0.0
2016-Feb-14 05:33N 35°41' E 139°59'0 0.1
2016-Feb-14 04:33N 35°41' E 139°59'4 3.8
2016-Feb-14 03:33N 35°37' E 139°57'3 3.0
2016-Feb-14 02:32N 35°35' E 139°55'8 8.4
2016-Feb-14 01:33N 35°31' E 139°46'0 0.0
2016-Feb-14 00:30N 35°31' E 139°46'0 0.3
2016-Feb-13 23:33N 35°31' E 139°46'7 6.5
2016-Feb-13 22:33N 35°33' E 139°54'1 0.8
2016-Feb-13 21:31N 35°34' E 139°54'0 0.0
2016-Feb-13 20:32N 35°34' E 139°54'0 0.0
2016-Feb-13 19:34N 35°34' E 139°54'0 0.0
2016-Feb-13 18:31N 35°34' E 139°54'0 0.0
2016-Feb-13 17:33N 35°34' E 139°54'0 0.0
2016-Feb-13 16:33N 35°34' E 139°54'0 0.0
2016-Feb-13 15:30N 35°34' E 139°54'0 0.0
2016-Feb-13 14:33N 35°34' E 139°54'0 0.0
2016-Feb-13 13:31N 35°34' E 139°54'0 0.0
2016-Feb-13 12:33N 35°34' E 139°54'0 0.0
2016-Feb-13 11:20N 35°34' E 139°54'0 0.0
2016-Feb-13 10:33N 35°34' E 139°54'0 0.0
2016-Feb-13 09:33N 35°34' E 139°54'1 0.6
2016-Feb-13 08:33N 35°34' E 139°53'9 9.0
2016-Feb-13 07:32N 35°27' E 139°45'0 0.0
2016-Feb-13 06:32N 35°27' E 139°45'0 0.0
2016-Feb-13 05:32N 35°27' E 139°45'1 0.9
2016-Feb-13 04:32N 35°28' E 139°44'0 0.0
2016-Feb-13 03:32N 35°28' E 139°44'0 0.1
2016-Feb-13 02:32N 35°28' E 139°44'0 0.0
2016-Feb-13 01:32N 35°28' E 139°44'0 0.0
2016-Feb-13 00:32N 35°28' E 139°44'1 1.0
2016-Feb-12 23:33N 35°28' E 139°45'0 0.3
2016-Feb-12 22:33N 35°28' E 139°46'5 4.8
2016-Feb-12 21:33N 35°27' E 139°40'0 0.0
2016-Feb-12 20:33N 35°27' E 139°40'0 0.0
2016-Feb-12 19:33N 35°27' E 139°40'0 0.0
2016-Feb-12 18:33N 35°27' E 139°40'0 0.0
2016-Feb-12 17:33N 35°27' E 139°40'0 0.0
2016-Feb-12 16:33N 35°27' E 139°40'0 0.0
2016-Feb-12 15:33N 35°27' E 139°40'0 0.0
2016-Feb-12 14:33N 35°27' E 139°40'0 0.0
2016-Feb-12 13:33N 35°27' E 139°40'0 0.0
2016-Feb-12 12:33N 35°27' E 139°40'0 0.0
2016-Feb-12 11:33N 35°27' E 139°40'0 0.0
2016-Feb-12 10:33N 35°27' E 139°40'0 0.0
2016-Feb-12 09:33N 35°27' E 139°40'0 0.0
2016-Feb-12 08:33N 35°27' E 139°40'0 0.0
2016-Feb-12 07:33N 35°27' E 139°40'0 0.0
2016-Feb-12 06:33N 35°27' E 139°40'0 0.0
2016-Feb-12 05:33N 35°27' E 139°40'0 0.0
2016-Feb-12 04:33N 35°27' E 139°40'0 0.0
2016-Feb-12 03:33N 35°27' E 139°40'0 0.0
2016-Feb-12 02:33N 35°27' E 139°40'0 0.0
2016-Feb-12 01:33N 35°27' E 139°40'0 0.0
2016-Feb-12 00:33N 35°27' E 139°40'0 0.0
2016-Feb-11 23:33N 35°27' E 139°40'0 0.0
2016-Feb-11 22:33N 35°27' E 139°40'0 0.0
2016-Feb-11 21:33N 35°27' E 139°40'0 0.0
2016-Feb-11 20:33N 35°27' E 139°40'0 0.0
2016-Feb-11 19:33N 35°27' E 139°40'0 0.0
2016-Feb-11 18:33N 35°27' E 139°40'0 0.0
2016-Feb-11 17:33N 35°27' E 139°40'0 0.0
2016-Feb-11 16:33N 35°27' E 139°40'0 0.0
2016-Feb-11 15:33N 35°27' E 139°40'0 0.0
2016-Feb-11 14:33N 35°27' E 139°40'0 0.0
2016-Feb-11 13:33N 35°27' E 139°40'0 0.0
2016-Feb-11 12:33N 35°27' E 139°40'0 0.0
2016-Feb-11 11:33N 35°27' E 139°40'0 0.0
2016-Feb-11 10:33N 35°27' E 139°40'0 0.0
2016-Feb-11 09:33N 35°27' E 139°40'0 0.0
2016-Feb-11 08:33N 35°27' E 139°40'0 0.0
2016-Feb-11 07:33N 35°27' E 139°40'0 0.0
2016-Feb-11 06:33N 35°27' E 139°40'0 0.0
2016-Feb-11 05:33N 35°27' E 139°40'0 0.0
2016-Feb-11 04:33N 35°27' E 139°40'0 0.0
2016-Feb-11 03:33N 35°27' E 139°40'0 0.0
2016-Feb-11 02:33N 35°27' E 139°40'0 0.0
2016-Feb-11 01:33N 35°27' E 139°40'2 2.5
2016-Feb-11 00:33N 35°27' E 139°43'1312.5
2016-Feb-10 23:33N 35°32' E 139°56'9 9.0
2016-Feb-10 22:33N 35°36' E 140°06'0 0.0
2016-Feb-10 21:33N 35°36' E 140°06'0 0.0
2016-Feb-10 20:33N 35°36' E 140°06'0 0.0
2016-Feb-10 19:33N 35°36' E 140°06'0 0.0
2016-Feb-10 18:33N 35°36' E 140°06'0 0.0
2016-Feb-10 17:33N 35°36' E 140°06'0 0.0
2016-Feb-10 16:33N 35°36' E 140°06'0 0.0
2016-Feb-10 15:33N 35°36' E 140°06'0 0.0
2016-Feb-10 14:33N 35°36' E 140°06'0 0.0
2016-Feb-10 13:33N 35°36' E 140°06'0 0.0
2016-Feb-10 12:33N 35°36' E 140°06'0 0.0
2016-Feb-10 11:33N 35°36' E 140°06'0 0.0
2016-Feb-10 10:33N 35°36' E 140°06'0 0.0
2016-Feb-10 09:33N 35°36' E 140°06'0 0.0
2016-Feb-10 08:33N 35°36' E 140°06'0 0.0
2016-Feb-10 07:33N 35°36' E 140°06'0 0.0
2016-Feb-10 06:33N 35°36' E 140°06'0 0.0
2016-Feb-10 05:33N 35°36' E 140°06'0 0.0
2016-Feb-10 04:33N 35°36' E 140°06'0 0.0
2016-Feb-10 03:33N 35°36' E 140°06'6 5.9
2016-Feb-10 02:33N 35°33' E 140°00'0 0.0
2016-Feb-10 01:33N 35°33' E 140°00'0 0.0
2016-Feb-10 00:27N 35°33' E 140°00'0 0.0
2016-Feb-09 23:33N 35°33' E 140°00'1 1.0
2016-Feb-09 22:33N 35°34' E 140°01'7 7.1
2016-Feb-09 21:33N 35°41' E 139°59'0 0.0
2016-Feb-09 20:33N 35°41' E 139°59'0 0.0
2016-Feb-09 19:33N 35°41' E 139°59'0 0.0
2016-Feb-09 18:33N 35°41' E 139°59'0 0.0
2016-Feb-09 17:33N 35°41' E 139°59'0 0.0
2016-Feb-09 16:33N 35°41' E 139°59'0 0.0
2016-Feb-09 15:33N 35°41' E 139°59'0 0.0
2016-Feb-09 14:33N 35°41' E 139°59'0 0.0
2016-Feb-09 13:33N 35°41' E 139°59'0 0.0
2016-Feb-09 12:33N 35°41' E 139°59'0 0.0
2016-Feb-09 11:33N 35°41' E 139°59'0 0.0
2016-Feb-09 10:33N 35°41' E 139°59'0 0.0
2016-Feb-09 09:33N 35°41' E 139°59'0 0.0
2016-Feb-09 08:33N 35°41' E 139°59'5 5.4
2016-Feb-09 07:33N 35°36' E 139°56'4 4.4
2016-Feb-09 06:33N 35°40' E 139°56'0 0.0
2016-Feb-09 05:33N 35°40' E 139°56'1 0.9
2016-Feb-09 04:33N 35°40' E 139°57'10 9.8
2016-Feb-09 03:33N 35°32' E 140°04'0 0.0
2016-Feb-09 02:33N 35°32' E 140°04'0 0.0
2016-Feb-09 01:33N 35°32' E 140°04'0 0.0
2016-Feb-09 00:33N 35°32' E 140°04'0 0.0
2016-Feb-08 23:34N 35°32' E 140°04'4 4.2
2016-Feb-08 22:33N 35°30' E 139°59'4 4.2
2016-Feb-08 21:33N 35°29' E 139°54'0 0.0
2016-Feb-08 20:33N 35°29' E 139°54'0 0.1
2016-Feb-08 19:33N 35°29' E 139°54'0 0.5
2016-Feb-08 18:33N 35°29' E 139°53'1212.3
2016-Feb-08 17:33N 35°19' E 139°44'1312.2
2016-Feb-08 16:31N 35°06' E 139°45'243 5.8
2016-Feb-06 22:19N 34°03' E 135°00'1012.3
2016-Feb-06 21:32N 34°12' E 134°59'1511.0
2016-Feb-06 20:10N 34°27' E 135°01'711.3
2016-Feb-06 19:34N 34°34' E 135°03'  

Dump ship's entire track history